Time;durP1;ratioP1;P1;durP2;ratioP2;P2;SDS_P1;SDS_P2;PMS_P1;PMS_P2;Temp;Humidity;BMP_temperature;BMP_pressure;BME280_temperature;BME280_humidity;BME280_pressure;Samples;Min_cycle;Max_cycle;Signal;HPM_P1;HPM_P2
2022/06/26 00:02:18;;;;;;;11.97;4.50;;;;;;;35.80;45.81;101180.19;4897864;29;20418;-67
2022/06/26 00:04:44;;;;;;;17.70;6.30;;;;;;;35.82;45.73;101171.00;4897926;29;20413;-69
2022/06/26 00:07:11;;;;;;;14.60;5.30;;;;;;;35.90;45.65;101159.56;4899217;29;20465;-69
2022/06/26 00:09:37;;;;;;;11.90;5.73;;;;;;;35.87;45.61;101146.66;4897702;29;20418;-70
2022/06/26 00:12:03;;;;;;;14.00;6.10;;;;;;;35.76;45.48;101157.53;4897761;29;20418;-70
2022/06/26 00:14:30;;;;;;;14.07;5.07;;;;;;;35.83;45.04;101149.09;4899204;29;20442;-70
2022/06/26 00:16:56;;;;;;;10.20;4.97;;;;;;;35.82;45.92;101152.91;4897585;29;20441;-68
2022/06/26 00:19:23;;;;;;;10.50;6.03;;;;;;;35.83;45.48;101148.28;4882092;29;20879;-69
2022/06/26 00:21:50;;;;;;;10.70;5.30;;;;;;;35.82;45.53;101144.78;4882219;29;20417;-68
2022/06/26 00:24:17;;;;;;;14.83;5.23;;;;;;;35.76;45.81;101149.44;4897499;29;20418;-68
2022/06/26 00:26:44;;;;;;;15.63;4.90;;;;;;;35.77;45.62;101142.13;4897454;29;20506;-68
2022/06/26 00:29:10;;;;;;;19.77;6.10;;;;;;;35.75;45.74;101139.72;4898891;29;20411;-69
2022/06/26 00:31:36;;;;;;;11.20;5.40;;;;;;;35.70;45.61;101141.66;4881864;29;20425;-68
2022/06/26 00:34:02;;;;;;;15.97;6.00;;;;;;;35.66;45.73;101135.22;4897098;29;20850;-68
2022/06/26 00:36:29;;;;;;;14.63;5.60;;;;;;;35.73;46.27;101141.91;4897231;29;20410;-68
2022/06/26 00:38:55;;;;;;;10.90;5.77;;;;;;;35.83;45.80;101140.19;4897218;29;20504;-68
2022/06/26 00:41:21;;;;;;;11.80;5.90;;;;;;;35.85;45.54;101130.75;4897046;29;20422;-68
2022/06/26 00:43:47;;;;;;;10.80;6.17;;;;;;;35.87;45.94;101122.34;4897624;29;20410;-68
2022/06/26 00:46:13;;;;;;;16.63;5.80;;;;;;;35.89;45.86;101115.56;4898919;29;20406;-68
2022/06/26 00:48:39;;;;;;;15.43;6.17;;;;;;;35.88;46.13;101110.47;4897103;29;20469;-68
2022/06/26 00:51:07;;;;;;;11.57;4.30;;;;;;;35.89;45.62;101106.66;4896602;29;20428;-68
2022/06/26 00:53:33;;;;;;;18.33;5.97;;;;;;;35.90;46.12;101097.47;4881314;29;20470;-68
2022/06/26 00:55:59;;;;;;;10.03;4.83;;;;;;;35.89;46.16;101085.88;4898546;29;20402;-69
2022/06/26 00:58:28;;;;;;;15.23;9.00;;;;;;;35.91;46.11;101089.16;4892895;29;20556;-68
2022/06/26 01:00:55;;;;;;;11.60;6.33;;;;;;;35.97;45.85;101079.06;4881443;29;20477;-68
2022/06/26 01:03:21;;;;;;;11.97;6.60;;;;;;;35.83;45.88;101084.31;4865986;29;20414;-68
2022/06/26 01:05:48;;;;;;;11.57;5.83;;;;;;;35.76;46.27;101078.47;4896781;29;20860;-68
2022/06/26 01:08:14;;;;;;;21.13;6.57;;;;;;;35.69;46.88;101080.69;4896921;29;20433;-70
2022/06/26 01:10:40;;;;;;;14.10;5.77;;;;;;;35.60;47.04;101077.78;4897876;29;20402;-68
2022/06/26 01:13:07;;;;;;;17.67;7.23;;;;;;;35.46;47.72;101082.25;4881666;29;20501;-68
2022/06/26 01:15:33;;;;;;;10.70;5.77;;;;;;;35.61;47.01;101079.44;4896431;29;20832;-68
2022/06/26 01:18:00;;;;;;;12.17;5.20;;;;;;;35.45;47.62;101078.75;4896505;29;20417;-67
2022/06/26 01:20:26;;;;;;;13.23;6.60;;;;;;;35.56;47.36;101076.78;4896968;29;20950;-68
2022/06/26 01:23:04;;;;;;;15.80;5.43;;;;;;;35.59;47.42;101078.88;4896279;29;20868;-68
2022/06/26 01:25:45;;;;;;;18.30;7.00;;;;;;;35.29;48.12;101063.75;4881223;29;20415;-67
2022/06/26 01:28:12;;;;;;;13.07;6.23;;;;;;;35.43;48.01;101063.94;4897903;29;20442;-67
2022/06/26 01:30:39;;;;;;;23.67;7.53;;;;;;;35.39;47.75;101065.56;4877841;29;20471;-67
2022/06/26 01:33:06;;;;;;;11.60;6.43;;;;;;;35.38;47.52;101064.75;4877605;29;20414;-68
2022/06/26 01:35:33;;;;;;;10.17;5.83;;;;;;;35.33;47.63;101070.19;4879185;29;20453;-68
2022/06/26 01:38:22;;;;;;;21.20;6.00;;;;;;;35.46;47.39;101074.16;4877477;29;20451;-68
2022/06/26 01:40:51;;;;;;;15.37;7.00;;;;;;;35.46;47.32;101072.25;4893227;29;20506;-68
2022/06/26 01:43:21;;;;;;;14.77;7.30;;;;;;;35.49;47.19;101073.59;4862054;29;20443;-69
2022/06/26 01:45:53;;;;;;;19.70;7.63;;;;;;;35.30;47.74;101069.94;4862199;29;20422;-68
2022/06/26 01:48:20;;;;;;;14.93;6.77;;;;;;;35.30;47.35;101070.78;4877417;29;20482;-69
2022/06/26 01:50:48;;;;;;;10.97;4.73;;;;;;;35.48;47.18;101069.28;4878026;29;20463;-69
2022/06/26 01:53:15;;;;;;;8.60;5.23;;;;;;;35.43;47.61;101063.94;4895291;29;20418;-69
2022/06/26 01:55:42;;;;;;;11.93;5.73;;;;;;;35.45;47.48;101053.66;4880938;29;20449;-68
2022/06/26 01:58:08;;;;;;;13.13;5.77;;;;;;;35.21;47.85;101058.97;4877246;29;20517;-70
2022/06/26 02:00:40;;;;;;;13.97;6.97;;;;;;;35.03;47.68;101059.66;4877174;29;21051;-68
2022/06/26 02:03:07;;;;;;;12.17;6.47;;;;;;;34.77;48.89;101057.13;4880418;29;20804;-68
2022/06/26 02:05:34;;;;;;;18.60;5.80;;;;;;;34.99;48.20;101057.53;4881149;29;20446;-68
2022/06/26 02:08:00;;;;;;;16.50;5.20;;;;;;;34.78;48.52;101056.03;4881229;29;20446;-68
2022/06/26 02:15:58;;;;;;;13.43;5.60;;;;;;;34.94;48.33;101057.56;4881648;29;20526;-71
2022/06/26 02:18:25;;;;;;;21.10;6.77;;;;;;;34.70;49.24;101068.22;4879165;29;20423;-70
2022/06/26 02:20:52;;;;;;;11.20;5.43;;;;;;;34.81;48.46;101077.03;4879073;29;20859;-73
2022/06/26 02:23:18;;;;;;;9.20;5.57;;;;;;;34.97;48.30;101075.06;4879024;29;20852;-72
2022/06/26 02:25:45;;;;;;;12.50;6.27;;;;;;;34.86;48.33;101076.97;4879030;29;20443;-70
2022/06/26 02:28:11;;;;;;;12.33;7.30;;;;;;;34.94;48.11;101071.06;4878998;29;20441;-72
2022/06/26 02:30:38;;;;;;;15.37;6.60;;;;;;;35.06;47.80;101070.69;4893625;29;20453;-72
2022/06/26 02:33:05;;;;;;;12.30;6.73;;;;;;;35.02;48.37;101074.22;4901018;29;20398;-70
2022/06/26 02:35:32;;;;;;;15.80;7.60;;;;;;;34.82;48.31;101084.03;4901191;29;20437;-71
2022/06/26 02:37:58;;;;;;;16.50;7.00;;;;;;;34.77;48.36;101085.94;4900815;29;20837;-70
2022/06/26 02:40:26;;;;;;;11.47;6.27;;;;;;;34.63;48.97;101086.56;4899308;29;20421;-69
2022/06/26 02:42:52;;;;;;;11.70;6.50;;;;;;;34.45;49.44;101088.00;4899935;29;20398;-70
2022/06/26 02:45:19;;;;;;;15.33;8.83;;;;;;;34.53;49.45;101089.31;4899071;29;21020;-70
2022/06/26 02:47:46;;;;;;;12.83;7.87;;;;;;;34.67;48.86;101090.31;4900983;29;20493;-69
2022/06/26 02:50:12;;;;;;;12.20;6.90;;;;;;;34.32;49.44;101095.84;4899171;29;20953;-69
2022/06/26 02:52:39;;;;;;;23.90;9.03;;;;;;;34.37;49.43;101088.53;4883450;29;20462;-71
2022/06/26 02:55:06;;;;;;;18.13;9.37;;;;;;;34.76;48.85;101085.16;4899033;29;20454;-70
2022/06/26 02:57:32;;;;;;;17.10;8.00;;;;;;;34.82;48.51;101078.66;4900550;29;20398;-72
2022/06/26 02:59:58;;;;;;;24.00;9.60;;;;;;;34.70;48.87;101078.19;4900296;29;20982;-70
2022/06/26 03:02:25;;;;;;;17.97;13.63;;;;;;;34.88;48.53;101082.13;4868015;29;20422;-69
2022/06/26 03:04:53;;;;;;;30.87;14.23;;;;;;;35.10;47.94;101081.72;4898876;29;20418;-68
2022/06/26 03:07:20;;;;;;;19.70;13.77;;;;;;;35.18;47.59;101081.94;4868356;29;20446;-69
2022/06/26 03:09:47;;;;;;;20.50;13.30;;;;;;;35.18;47.63;101086.53;4899922;29;20405;-68
2022/06/26 03:12:14;;;;;;;21.10;13.60;;;;;;;35.13;48.13;101081.97;4898427;29;21006;-70
2022/06/26 03:14:40;;;;;;;20.57;13.73;;;;;;;34.96;48.13;101084.25;4898702;29;20553;-70
2022/06/26 03:17:07;;;;;;;18.77;13.33;;;;;;;34.92;48.22;101083.97;4900345;29;20413;-71
2022/06/26 03:19:33;;;;;;;23.33;11.70;;;;;;;34.81;48.42;101085.13;4898673;29;20501;-68
2022/06/26 03:21:59;;;;;;;22.23;9.00;;;;;;;35.03;48.38;101075.84;4898528;29;20422;-69
2022/06/26 03:24:25;;;;;;;22.67;11.97;;;;;;;34.90;48.59;101086.13;4900145;29;20430;-71
2022/06/26 03:26:51;;;;;;;16.77;7.93;;;;;;;34.86;48.43;101084.25;4898480;29;20410;-71
2022/06/26 03:29:18;;;;;;;14.40;7.17;;;;;;;34.70;48.73;101086.25;4900001;29;20413;-69
2022/06/26 03:31:44;;;;;;;14.20;9.30;;;;;;;34.85;48.31;101083.47;4882910;29;20931;-69
2022/06/26 03:34:10;;;;;;;15.73;7.40;;;;;;;34.58;49.06;101080.41;4898259;29;20493;-68
2022/06/26 03:36:36;;;;;;;15.93;8.03;;;;;;;34.65;49.08;101081.69;4898378;29;20422;-68
2022/06/26 03:39:04;;;;;;;17.90;8.20;;;;;;;34.73;48.75;101083.00;4882769;29;20811;-69
2022/06/26 03:41:31;;;;;;;22.60;7.60;;;;;;;34.84;48.22;101081.84;4898693;29;20433;-68
2022/06/26 03:43:57;;;;;;;12.43;6.90;;;;;;;34.77;48.66;101070.59;4882942;29;20514;-68
2022/06/26 03:46:23;;;;;;;18.33;7.80;;;;;;;34.77;48.72;101080.56;4882667;29;20414;-68
2022/06/26 03:48:49;;;;;;;11.80;7.30;;;;;;;34.87;48.95;101080.50;4882682;29;20772;-68
2022/06/26 03:51:15;;;;;;;12.47;6.70;;;;;;;34.90;48.39;101079.94;4882609;29;20426;-68
2022/06/26 03:53:41;;;;;;;12.37;10.17;;;;;;;34.74;48.78;101073.81;4882335;29;20462;-68
2022/06/26 03:56:08;;;;;;;13.50;7.43;;;;;;;34.67;49.17;101068.75;4898242;29;20417;-68
2022/06/26 03:58:34;;;;;;;10.30;6.43;;;;;;;34.80;48.46;101078.09;4899385;29;20520;-69
2022/06/26 04:01:00;;;;;;;12.43;7.10;;;;;;;34.66;48.76;101082.50;4897719;29;20473;-68
2022/06/26 04:03:26;;;;;;;15.40;8.10;;;;;;;34.61;49.34;101088.72;4882464;29;20517;-69
2022/06/26 04:05:53;;;;;;;12.23;6.50;;;;;;;34.90;48.33;101074.53;4899220;29;20985;-68
2022/06/26 04:08:19;;;;;;;16.30;7.83;;;;;;;34.66;48.91;101075.22;4898145;29;20438;-68
2022/06/26 04:10:45;;;;;;;12.33;6.73;;;;;;;34.74;48.54;101073.81;4897635;29;20485;-69
2022/06/26 04:13:13;;;;;;;14.43;7.60;;;;;;;34.91;48.10;101060.78;4899397;29;20394;-68
2022/06/26 04:15:40;;;;;;;17.60;10.03;;;;;;;35.02;48.20;101064.25;4882222;29;20457;-68
2022/06/26 04:18:07;;;;;;;11.83;7.53;;;;;;;34.97;48.47;101066.97;4897498;29;20450;-68
2022/06/26 04:20:34;;;;;;;16.30;8.17;;;;;;;35.19;47.33;101077.34;4897512;29;20456;-68
2022/06/26 04:23:04;;;;;;;15.30;8.30;;;;;;;34.97;48.15;101086.66;4897476;29;20513;-68
2022/06/26 04:25:31;;;;;;;18.87;8.83;;;;;;;35.11;48.09;101080.63;4896686;29;20442;-68
2022/06/26 04:27:59;;;;;;;29.07;9.53;;;;;;;34.93;48.36;101077.53;4897359;29;20425;-69
2022/06/26 04:30:25;;;;;;;14.47;7.63;;;;;;;35.02;48.15;101082.31;4897206;29;20570;-71
2022/06/26 04:32:52;;;;;;;14.80;8.00;;;;;;;35.09;48.10;101086.28;4899013;29;20394;-70
2022/06/26 04:35:18;;;;;;;21.50;8.13;;;;;;;35.13;47.94;101078.47;4897037;29;20453;-70
2022/06/26 04:37:46;;;;;;;16.80;10.07;;;;;;;35.16;47.34;101078.69;4899011;29;20426;-69
2022/06/26 04:40:14;;;;;;;11.90;7.60;;;;;;;35.03;47.78;101076.63;4897413;29;20421;-68
2022/06/26 04:42:41;;;;;;;17.77;9.80;;;;;;;35.05;47.69;101087.13;4897617;29;20489;-68
2022/06/26 04:45:09;;;;;;;14.73;7.00;;;;;;;35.26;47.47;101083.22;4897243;29;20415;-69
2022/06/26 04:47:35;;;;;;;12.90;8.13;;;;;;;35.21;47.39;101080.53;4896996;29;20890;-69
2022/06/26 04:50:03;;;;;;;12.77;8.63;;;;;;;35.10;47.82;101079.00;4897045;29;20444;-68
2022/06/26 04:52:29;;;;;;;17.90;7.60;;;;;;;34.98;47.44;101088.25;4896952;29;20508;-69
2022/06/26 04:54:56;;;;;;;11.97;7.80;;;;;;;34.88;47.50;101091.00;4896877;29;20492;-69
2022/06/26 04:57:22;;;;;;;13.47;7.20;;;;;;;34.87;48.23;101100.19;4896967;29;20986;-69
2022/06/26 04:59:49;;;;;;;15.60;7.70;;;;;;;34.99;47.71;101089.88;4896553;29;20932;-68
2022/06/26 05:02:15;;;;;;;21.50;9.30;;;;;;;35.08;47.48;101087.38;4896868;29;20883;-69
2022/06/26 05:04:41;;;;;;;26.13;9.70;;;;;;;35.12;47.62;101098.44;4881146;29;20410;-69
2022/06/26 05:07:07;;;;;;;20.00;9.43;;;;;;;35.18;47.37;101100.00;4896762;29;20444;-69
2022/06/26 05:09:33;;;;;;;18.57;8.40;;;;;;;34.90;47.65;101102.31;4896711;29;20497;-68
2022/06/26 05:12:00;;;;;;;18.80;9.87;;;;;;;35.15;47.54;101108.63;4898134;29;20941;-68
2022/06/26 05:14:26;;;;;;;13.03;8.40;;;;;;;35.04;47.52;101107.91;4898135;29;20817;-69
2022/06/26 05:16:52;;;;;;;15.67;8.83;;;;;;;34.97;47.43;101102.81;4896552;29;20450;-68
2022/06/26 05:19:18;;;;;;;15.90;8.50;;;;;;;35.03;47.72;101106.28;4898113;29;20402;-69
2022/06/26 05:21:45;;;;;;;18.90;9.80;;;;;;;34.99;47.76;101099.88;4896530;29;20425;-68
2022/06/26 05:24:11;;;;;;;17.83;9.20;;;;;;;35.10;47.67;101111.38;4896498;29;20514;-69
2022/06/26 05:26:39;;;;;;;25.37;8.50;;;;;;;35.19;47.15;101113.19;4896421;29;20949;-69
2022/06/26 05:29:05;;;;;;;20.33;7.90;;;;;;;34.93;48.01;101109.88;4896312;29;20927;-68
2022/06/26 05:31:31;;;;;;;23.67;8.53;;;;;;;34.89;48.28;101116.88;4897979;29;20396;-68
2022/06/26 05:33:57;;;;;;;19.70;8.90;;;;;;;34.87;48.11;101119.03;4896370;29;20512;-69
2022/06/26 05:36:24;;;;;;;11.80;8.27;;;;;;;34.72;48.24;101111.03;4896151;29;20485;-68
2022/06/26 05:38:50;;;;;;;14.57;8.73;;;;;;;34.66;48.53;101118.34;4896395;29;20470;-68
2022/06/26 05:41:16;;;;;;;12.07;9.83;;;;;;;34.70;48.79;101119.41;4896980;29;20402;-70
2022/06/26 05:43:44;;;;;;;19.30;12.20;;;;;;;34.86;48.28;101130.88;4896317;29;20504;-71
2022/06/26 05:46:11;;;;;;;30.00;14.63;;;;;;;34.93;48.26;101123.34;4896302;29;20509;-70
2022/06/26 05:48:37;;;;;;;20.60;11.30;;;;;;;35.01;47.83;101130.03;4896131;29;20433;-70
2022/06/26 05:51:03;;;;;;;27.07;11.90;;;;;;;35.06;47.59;101130.00;4898132;29;20417;-69
2022/06/26 05:53:30;;;;;;;23.70;13.40;;;;;;;34.88;48.05;101144.91;4896021;29;20449;-69
2022/06/26 05:55:56;;;;;;;22.43;13.23;;;;;;;34.73;48.34;101137.69;4897934;29;20493;-68
2022/06/26 05:58:23;;;;;;;21.00;15.40;;;;;;;34.76;48.92;101141.75;4896173;29;20493;-70
2022/06/26 06:00:49;;;;;;;20.33;15.40;;;;;;;34.86;48.11;101141.66;4895952;29;20541;-70
2022/06/26 06:03:15;;;;;;;14.70;10.60;;;;;;;34.68;48.46;101147.69;4896094;29;20457;-70
2022/06/26 06:05:41;;;;;;;14.63;10.00;;;;;;;34.89;48.59;101146.53;4896020;29;20410;-70
2022/06/26 06:08:07;;;;;;;20.60;13.83;;;;;;;34.88;48.38;101152.19;4896123;29;20445;-71
2022/06/26 06:10:33;;;;;;;18.00;13.43;;;;;;;34.70;48.63;101159.81;4895968;29;20446;-70
2022/06/26 06:13:01;;;;;;;23.47;14.10;;;;;;;34.82;48.70;101151.41;4897540;29;20406;-70
2022/06/26 06:15:27;;;;;;;29.27;12.13;;;;;;;34.93;48.51;101152.19;4897485;29;20533;-70
2022/06/26 06:17:53;;;;;;;19.50;12.07;;;;;;;34.94;47.93;101154.59;4895727;29;20449;-69
2022/06/26 06:20:24;;;;;;;21.00;12.27;;;;;;;34.88;48.51;101153.00;4895996;29;20426;-69
2022/06/26 06:23:00;;;;;;;26.03;10.67;;;;;;;34.76;48.91;101159.81;4895884;29;20476;-69
2022/06/26 06:25:26;;;;;;;16.87;10.40;;;;;;;34.97;48.27;101162.13;4895977;29;20500;-68
2022/06/26 06:27:52;;;;;;;21.00;13.30;;;;;;;34.96;48.08;101157.81;4897317;29;20398;-68
2022/06/26 06:30:19;;;;;;;20.80;11.60;;;;;;;34.88;48.51;101162.97;4897128;29;20410;-70
2022/06/26 06:32:48;;;;;;;31.83;14.40;;;;;;;34.88;48.45;101176.44;4897565;29;20402;-70
2022/06/26 06:35:15;;;;;;;28.20;16.50;;;;;;;34.99;48.47;101181.53;4897155;29;20481;-71
2022/06/26 06:37:42;;;;;;;27.33;17.37;;;;;;;35.14;48.52;101188.72;4895878;29;20420;-69
2022/06/26 06:40:13;;;;;;;23.13;14.07;;;;;;;35.22;48.09;101195.41;4895746;29;20520;-69
2022/06/26 06:42:40;;;;;;;25.83;16.30;;;;;;;35.25;48.13;101200.28;4895785;29;20421;-69
2022/06/26 06:45:06;;;;;;;22.17;14.23;;;;;;;35.46;47.44;101207.16;4880287;29;20417;-68
2022/06/26 06:47:33;;;;;;;19.60;16.50;;;;;;;35.49;47.52;101206.59;4895893;29;20941;-69
2022/06/26 06:49:59;;;;;;;26.80;16.87;;;;;;;35.14;47.77;101223.78;4899202;29;21027;-68
2022/06/26 06:52:26;;;;;;;31.60;18.53;;;;;;;35.32;47.25;101227.72;4899100;29;20493;-68
2022/06/26 06:54:52;;;;;;;28.33;18.90;;;;;;;35.09;48.37;101231.09;4883687;29;20566;-68
2022/06/26 06:57:19;;;;;;;20.20;16.20;;;;;;;35.14;48.45;101244.56;4899093;29;20418;-68
2022/06/26 06:59:45;;;;;;;28.37;18.23;;;;;;;35.37;47.82;101249.28;4900215;29;20476;-69
2022/06/26 07:02:11;;;;;;;18.80;15.10;;;;;;;35.38;47.58;101256.28;4900588;29;20487;-68
2022/06/26 07:04:37;;;;;;;24.07;17.93;;;;;;;35.31;47.35;101260.38;4868036;29;20414;-68
2022/06/26 07:07:04;;;;;;;33.40;18.70;;;;;;;35.31;47.48;101261.19;4898850;29;20446;-68
2022/06/26 07:09:31;;;;;;;21.97;15.30;;;;;;;35.46;46.74;101266.50;4898847;29;20809;-68
2022/06/26 07:11:58;;;;;;;23.33;17.53;;;;;;;35.24;47.32;101260.69;4898765;29;20850;-68
2022/06/26 07:14:25;;;;;;;25.10;14.13;;;;;;;35.19;47.97;101261.50;4898769;29;20456;-68
2022/06/26 07:16:51;;;;;;;22.83;15.67;;;;;;;35.10;47.72;101262.34;4898716;29;20788;-68
2022/06/26 07:19:18;;;;;;;24.67;16.50;;;;;;;34.88;48.63;101266.19;4900341;29;20398;-68
2022/06/26 07:21:44;;;;;;;36.30;16.57;;;;;;;35.00;48.30;101274.00;4900286;29;20390;-68
2022/06/26 07:24:11;;;;;;;25.90;15.80;;;;;;;35.18;47.86;101283.38;4899972;29;20433;-68
2022/06/26 07:26:39;;;;;;;24.37;14.10;;;;;;;35.35;47.71;101286.50;4898658;29;20429;-69
2022/06/26 07:29:06;;;;;;;23.70;14.50;;;;;;;35.37;47.55;101278.94;4899974;29;20462;-69
2022/06/26 07:31:32;;;;;;;33.73;15.17;;;;;;;35.21;47.66;101280.09;4898482;29;20504;-68
2022/06/26 07:34:13;;;;;;;33.47;17.77;;;;;;;35.21;47.96;101278.22;4900110;29;21025;-68
2022/06/26 07:36:40;;;;;;;30.50;19.83;;;;;;;34.84;48.53;101275.91;4898569;29;20844;-68
2022/06/26 07:39:07;;;;;;;34.50;19.60;;;;;;;35.12;48.40;101276.38;4898373;29;20424;-70
2022/06/26 07:41:34;;;;;;;27.63;19.53;;;;;;;35.14;48.12;101285.00;4898275;29;20482;-70
2022/06/26 07:44:00;;;;;;;27.10;20.30;;;;;;;35.21;48.28;101290.88;4898292;29;20433;-71
2022/06/26 07:46:26;;;;;;;34.20;21.80;;;;;;;35.24;48.26;101301.94;4882896;29;21009;-70
2022/06/26 07:48:53;;;;;;;30.20;22.00;;;;;;;35.40;47.46;101302.66;4898194;29;20426;-71
2022/06/26 07:51:19;;;;;;;31.80;20.50;;;;;;;35.36;47.92;101309.72;4899735;29;20435;-69
2022/06/26 07:53:45;;;;;;;28.77;21.40;;;;;;;35.34;47.66;101313.75;4897963;29;20422;-69
2022/06/26 07:56:13;;;;;;;36.60;20.23;;;;;;;35.42;47.00;101318.56;4898172;29;20930;-69
2022/06/26 07:58:39;;;;;;;34.10;21.20;;;;;;;35.58;47.13;101322.03;4897628;29;20417;-68
2022/06/26 08:01:05;;;;;;;31.40;22.00;;;;;;;35.55;47.15;101320.69;4897152;29;20534;-69
2022/06/26 08:03:31;;;;;;;34.00;19.90;;;;;;;35.52;47.46;101319.34;4897888;29;20788;-70
2022/06/26 08:05:57;;;;;;;37.10;25.20;;;;;;;35.59;47.38;101315.53;4897848;29;20414;-71
2022/06/26 08:08:24;;;;;;;29.83;21.53;;;;;;;35.62;47.70;101310.41;4897728;29;20827;-70
2022/06/26 08:10:50;;;;;;;42.53;22.53;;;;;;;35.62;47.95;101302.31;4897932;29;20941;-69
2022/06/26 08:13:16;;;;;;;37.87;21.50;;;;;;;35.48;47.84;101307.53;4898012;29;20430;-69
2022/06/26 08:15:42;;;;;;;36.07;22.67;;;;;;;35.26;48.01;101304.34;4897640;29;20469;-68
2022/06/26 08:18:09;;;;;;;34.57;23.57;;;;;;;35.35;48.32;101307.28;4897586;29;20897;-68
2022/06/26 08:20:36;;;;;;;35.97;25.37;;;;;;;35.47;47.82;101307.78;4897606;29;20433;-69
2022/06/26 08:23:02;;;;;;;23.60;18.13;;;;;;;35.30;47.88;101309.97;4897453;29;20445;-68
2022/06/26 08:25:28;;;;;;;32.67;17.40;;;;;;;35.36;47.77;101309.72;4897526;29;20417;-68
2022/06/26 08:27:55;;;;;;;29.80;18.57;;;;;;;35.28;48.38;101310.28;4897526;29;20450;-68
2022/06/26 08:30:21;;;;;;;27.67;16.10;;;;;;;35.22;48.59;101306.78;4897266;29;20504;-68
2022/06/26 08:32:48;;;;;;;25.90;14.80;;;;;;;34.93;48.70;101312.03;4897395;29;20411;-68
2022/06/26 08:35:14;;;;;;;26.60;16.97;;;;;;;34.89;49.25;101323.59;4897105;29;20462;-68
2022/06/26 08:37:41;;;;;;;24.07;13.20;;;;;;;35.05;48.70;101330.59;4897314;29;20418;-68
2022/06/26 08:40:08;;;;;;;26.23;15.80;;;;;;;35.07;48.96;101333.81;4897291;29;20807;-68
2022/06/26 08:42:39;;;;;;;19.13;12.10;;;;;;;34.96;49.23;101327.66;4896925;29;20508;-68
2022/06/26 08:45:06;;;;;;;18.20;12.70;;;;;;;35.18;49.17;101332.72;4897183;29;20425;-68
2022/06/26 08:47:37;;;;;;;25.70;15.20;;;;;;;35.27;48.51;101338.34;4897022;29;20422;-68
2022/06/26 08:50:03;;;;;;;23.73;14.77;;;;;;;35.26;49.01;101350.22;4896971;29;20426;-68
2022/06/26 08:52:30;;;;;;;24.73;15.37;;;;;;;35.34;48.35;101346.94;4896980;29;20990;-68
2022/06/26 08:54:57;;;;;;;30.43;15.67;;;;;;;35.44;48.23;101349.63;4896992;29;20458;-68
2022/06/26 08:57:23;;;;;;;22.77;14.80;;;;;;;35.25;48.81;101348.59;4896936;29;20418;-68
2022/06/26 08:59:50;;;;;;;29.17;15.93;;;;;;;35.48;48.02;101345.28;4896697;29;20486;-68
2022/06/26 09:02:16;;;;;;;25.57;15.10;;;;;;;35.50;48.51;101347.69;4896869;29;20424;-68
2022/06/26 09:04:42;;;;;;;26.30;17.10;;;;;;;35.33;48.83;101349.91;4896837;29;20410;-68
2022/06/26 09:07:10;;;;;;;22.13;15.93;;;;;;;35.40;48.48;101339.63;4896683;29;20496;-68
2022/06/26 09:09:39;;;;;;;23.53;15.17;;;;;;;35.48;48.42;101339.91;4881386;29;20414;-68
2022/06/26 09:12:06;;;;;;;23.47;14.60;;;;;;;35.57;48.07;101334.72;4896369;29;20421;-68
2022/06/26 09:14:33;;;;;;;21.90;13.40;;;;;;;35.66;47.29;101340.31;4881014;29;20946;-68
2022/06/26 09:17:00;;;;;;;22.73;13.33;;;;;;;35.58;47.89;101330.91;4886285;29;20411;-68
2022/06/26 09:19:33;;;;;;;17.60;13.40;;;;;;;35.68;47.97;101332.75;4887707;29;20449;-68
2022/06/26 09:22:16;;;;;;;19.03;11.83;;;;;;;35.78;47.04;101332.69;4886955;29;20411;-69
2022/06/26 09:24:54;;;;;;;22.50;13.87;;;;;;;35.69;47.80;101331.69;4888638;29;20489;-71
2022/06/26 09:27:21;;;;;;;16.37;11.83;;;;;;;35.83;47.41;101329.16;4887685;29;20420;-69
2022/06/26 09:29:55;;;;;;;23.07;14.67;;;;;;;35.83;47.05;101338.06;4885327;29;20418;-68
2022/06/26 09:32:23;;;;;;;21.83;14.83;;;;;;;35.89;47.45;101336.13;4888294;29;20498;-69
2022/06/26 09:34:52;;;;;;;33.43;13.23;;;;;;;35.72;47.79;101341.91;4885622;29;20451;-69
2022/06/26 09:37:20;;;;;;;17.50;11.20;;;;;;;35.72;47.75;101339.19;4886592;29;20947;-69
2022/06/26 09:39:47;;;;;;;21.80;11.30;;;;;;;35.64;48.36;101334.41;4887511;29;20457;-69
2022/06/26 09:42:19;;;;;;;19.90;10.87;;;;;;;35.59;48.51;101332.53;4885859;29;20471;-69
2022/06/26 09:44:53;;;;;;;16.63;8.10;;;;;;;35.57;48.27;101337.41;4885628;29;20806;-69
2022/06/26 09:47:34;;;;;;;28.77;11.87;;;;;;;35.40;48.74;101342.31;4886695;29;20505;-69
2022/06/26 09:50:04;;;;;;;28.53;11.87;;;;;;;35.19;49.23;101347.00;4888142;29;20407;-69
2022/06/26 09:52:32;;;;;;;21.50;10.07;;;;;;;35.12;49.03;101349.19;4886802;29;20406;-69
2022/06/26 09:55:00;;;;;;;23.27;9.67;;;;;;;34.89;48.38;101345.16;4884920;29;20533;-71
2022/06/26 09:57:28;;;;;;;23.63;8.53;;;;;;;34.86;48.58;101345.69;4877385;29;20505;-67
2022/06/26 09:59:55;;;;;;;21.73;8.23;;;;;;;34.84;48.91;101345.19;4884080;29;20476;-67
2022/06/26 10:07:54;;;;;;;21.87;10.63;;;;;;;35.09;48.35;101338.94;4897593;29;20934;-67
2022/06/26 10:10:24;;;;;;;23.23;11.30;;;;;;;34.93;48.43;101352.47;4895955;29;20482;-68
2022/06/26 10:13:16;;;;;;;34.33;13.53;;;;;;;34.94;47.93;101346.00;4897664;29;20413;-68
2022/06/26 10:16:07;;;;;;;19.20;10.77;;;;;;;35.04;47.85;101349.72;4886127;29;20512;-68
2022/06/26 10:18:48;;;;;;;19.80;9.20;;;;;;;34.76;48.26;101346.56;4897413;29;20438;-68
2022/06/26 10:21:14;;;;;;;22.13;8.03;;;;;;;34.63;49.04;101350.63;4895943;29;20513;-68
2022/06/26 10:23:42;;;;;;;15.37;9.30;;;;;;;34.25;50.42;101349.22;4898065;29;20428;-67
2022/06/26 10:26:21;;;;;;;18.70;8.40;;;;;;;34.28;50.62;101345.22;4899669;29;20449;-68
2022/06/26 10:29:06;;;;;;;22.80;9.53;;;;;;;34.25;50.75;101343.03;4899655;29;20872;-68
2022/06/26 10:31:46;;;;;;;13.27;6.67;;;;;;;33.90;51.05;101345.41;4899451;29;20432;-68
2022/06/26 10:34:23;;;;;;;15.97;9.20;;;;;;;34.22;50.68;101345.19;4890837;29;20967;-68
2022/06/26 10:37:15;;;;;;;22.37;9.63;;;;;;;34.46;50.33;101333.94;4892435;29;20445;-68
2022/06/26 10:39:45;;;;;;;21.00;9.73;;;;;;;34.13;50.18;101333.38;4890109;29;20424;-67
2022/06/26 10:45:11;;;;;;;16.50;7.37;;;;;;;33.94;51.20;101329.56;4891860;29;20446;-67
2022/06/26 10:47:49;;;;;;;20.80;7.73;;;;;;;33.98;50.65;101321.75;4890126;29;20428;-68
2022/06/26 10:50:33;;;;;;;13.53;7.83;;;;;;;34.25;50.15;101330.38;4890189;29;20853;-68
2022/06/26 10:53:23;;;;;;;13.23;7.50;;;;;;;34.38;49.82;101337.13;4897467;29;20428;-68
2022/06/26 10:55:55;;;;;;;16.03;6.90;;;;;;;34.59;49.68;101337.94;4883513;29;20457;-70
2022/06/26 10:58:29;;;;;;;12.93;7.10;;;;;;;34.58;49.62;101336.34;4898657;29;20783;-70
2022/06/26 11:01:03;;;;;;;17.80;10.00;;;;;;;34.46;50.09;101347.41;4897149;29;20462;-70
2022/06/26 11:03:30;;;;;;;16.10;10.20;;;;;;;34.46;49.97;101358.16;4880694;29;20464;-68
2022/06/26 11:05:59;;;;;;;15.50;8.20;;;;;;;34.39;50.51;101371.88;4864901;29;20422;-68
2022/06/26 11:08:33;;;;;;;13.70;9.20;;;;;;;34.61;50.74;101378.88;4864915;29;20422;-68
2022/06/26 11:11:00;;;;;;;20.37;12.83;;;;;;;34.67;50.13;101370.53;4880856;29;20489;-68
2022/06/26 11:13:27;;;;;;;15.33;10.63;;;;;;;34.91;49.53;101373.47;4892398;29;20475;-68
2022/06/26 11:15:53;;;;;;;17.70;9.63;;;;;;;35.04;49.24;101388.28;4899895;29;20454;-68
2022/06/26 11:18:19;;;;;;;23.83;9.20;;;;;;;35.16;49.55;101391.50;4899847;29;20470;-68
2022/06/26 11:20:50;;;;;;;19.27;8.00;;;;;;;35.34;48.77;101408.16;4898751;29;20424;-68
2022/06/26 11:23:20;;;;;;;17.10;8.63;;;;;;;35.47;48.43;101415.69;4898518;29;20449;-68
2022/06/26 11:25:49;;;;;;;14.30;8.40;;;;;;;35.53;48.06;101412.69;4899403;29;20458;-68
2022/06/26 11:28:17;;;;;;;14.60;8.57;;;;;;;35.58;47.89;101403.78;4879902;29;20485;-68
2022/06/26 11:30:45;;;;;;;17.50;10.50;;;;;;;35.56;48.00;101410.53;4879329;29;20935;-68
2022/06/26 11:33:12;;;;;;;12.77;8.03;;;;;;;35.55;47.61;101403.53;4883748;29;20537;-70